sensor_id;sensor_type;location;lat;lon;timestamp;P1;durP1;ratioP1;P2;durP2;ratioP2
11135;SDS011;5622;50.840;4.948;2024-02-14T00:00:19;5.07;;;2.87;;
11135;SDS011;5622;50.840;4.948;2024-02-14T00:02:49;5.50;;;3.30;;
11135;SDS011;5622;50.840;4.948;2024-02-14T00:05:17;4.83;;;3.40;;
11135;SDS011;5622;50.840;4.948;2024-02-14T00:07:44;4.00;;;3.00;;
11135;SDS011;5622;50.840;4.948;2024-02-14T00:10:11;4.20;;;3.53;;
11135;SDS011;5622;50.840;4.948;2024-02-14T00:12:39;5.37;;;3.23;;
11135;SDS011;5622;50.840;4.948;2024-02-14T00:15:07;3.60;;;3.00;;
11135;SDS011;5622;50.840;4.948;2024-02-14T00:17:36;5.00;;;2.90;;
11135;SDS011;5622;50.840;4.948;2024-02-14T00:20:04;4.77;;;2.97;;
11135;SDS011;5622;50.840;4.948;2024-02-14T00:22:32;3.37;;;2.97;;
11135;SDS011;5622;50.840;4.948;2024-02-14T00:24:59;4.07;;;3.00;;
11135;SDS011;5622;50.840;4.948;2024-02-14T00:27:27;3.30;;;3.00;;
11135;SDS011;5622;50.840;4.948;2024-02-14T00:29:54;5.03;;;3.63;;
11135;SDS011;5622;50.840;4.948;2024-02-14T00:32:22;7.03;;;3.30;;
11135;SDS011;5622;50.840;4.948;2024-02-14T00:34:51;4.13;;;2.87;;
11135;SDS011;5622;50.840;4.948;2024-02-14T00:37:19;5.33;;;3.30;;
11135;SDS011;5622;50.840;4.948;2024-02-14T00:39:46;6.03;;;3.33;;
11135;SDS011;5622;50.840;4.948;2024-02-14T00:42:15;4.80;;;3.27;;
11135;SDS011;5622;50.840;4.948;2024-02-14T00:44:42;3.60;;;2.90;;
11135;SDS011;5622;50.840;4.948;2024-02-14T00:47:09;6.87;;;2.93;;
11135;SDS011;5622;50.840;4.948;2024-02-14T00:49:36;4.20;;;3.17;;
11135;SDS011;5622;50.840;4.948;2024-02-14T00:52:05;5.87;;;3.47;;
11135;SDS011;5622;50.840;4.948;2024-02-14T00:54:35;3.87;;;3.13;;
11135;SDS011;5622;50.840;4.948;2024-02-14T00:57:02;4.17;;;3.20;;
11135;SDS011;5622;50.840;4.948;2024-02-14T00:59:30;4.33;;;3.00;;
11135;SDS011;5622;50.840;4.948;2024-02-14T01:01:57;3.93;;;3.07;;
11135;SDS011;5622;50.840;4.948;2024-02-14T01:04:24;4.80;;;3.17;;
11135;SDS011;5622;50.840;4.948;2024-02-14T01:06:51;4.53;;;3.10;;
11135;SDS011;5622;50.840;4.948;2024-02-14T01:09:22;6.50;;;3.07;;
11135;SDS011;5622;50.840;4.948;2024-02-14T01:11:49;4.50;;;3.07;;
11135;SDS011;5622;50.840;4.948;2024-02-14T01:14:16;6.40;;;3.17;;
11135;SDS011;5622;50.840;4.948;2024-02-14T01:16:43;4.03;;;3.40;;
11135;SDS011;5622;50.840;4.948;2024-02-14T01:19:11;6.03;;;3.23;;
11135;SDS011;5622;50.840;4.948;2024-02-14T01:21:39;4.43;;;3.10;;
11135;SDS011;5622;50.840;4.948;2024-02-14T01:24:06;3.83;;;2.93;;
11135;SDS011;5622;50.840;4.948;2024-02-14T01:26:35;5.83;;;3.67;;
11135;SDS011;5622;50.840;4.948;2024-02-14T01:29:02;3.90;;;3.03;;
11135;SDS011;5622;50.840;4.948;2024-02-14T01:31:30;7.20;;;3.67;;
11135;SDS011;5622;50.840;4.948;2024-02-14T01:33:59;5.00;;;3.50;;
11135;SDS011;5622;50.840;4.948;2024-02-14T01:36:27;4.33;;;3.30;;
11135;SDS011;5622;50.840;4.948;2024-02-14T01:38:55;3.57;;;3.07;;
11135;SDS011;5622;50.840;4.948;2024-02-14T01:41:23;6.83;;;4.00;;
11135;SDS011;5622;50.840;4.948;2024-02-14T01:43:52;4.20;;;3.43;;
11135;SDS011;5622;50.840;4.948;2024-02-14T01:46:19;4.90;;;3.60;;
11135;SDS011;5622;50.840;4.948;2024-02-14T01:48:46;5.10;;;3.37;;
11135;SDS011;5622;50.840;4.948;2024-02-14T01:51:14;8.73;;;3.77;;
11135;SDS011;5622;50.840;4.948;2024-02-14T01:53:44;5.87;;;3.90;;
11135;SDS011;5622;50.840;4.948;2024-02-14T01:56:12;4.90;;;3.83;;
11135;SDS011;5622;50.840;4.948;2024-02-14T01:58:41;6.07;;;3.93;;
11135;SDS011;5622;50.840;4.948;2024-02-14T02:01:10;6.37;;;4.27;;
11135;SDS011;5622;50.840;4.948;2024-02-14T02:03:38;7.30;;;4.00;;
11135;SDS011;5622;50.840;4.948;2024-02-14T02:06:05;7.03;;;4.27;;
11135;SDS011;5622;50.840;4.948;2024-02-14T02:08:33;8.37;;;3.93;;
11135;SDS011;5622;50.840;4.948;2024-02-14T02:11:00;5.13;;;3.90;;
11135;SDS011;5622;50.840;4.948;2024-02-14T02:13:30;5.87;;;4.13;;
11135;SDS011;5622;50.840;4.948;2024-02-14T02:15:57;7.60;;;4.40;;
11135;SDS011;5622;50.840;4.948;2024-02-14T02:18:28;7.37;;;4.10;;
11135;SDS011;5622;50.840;4.948;2024-02-14T02:20:55;4.40;;;3.87;;
11135;SDS011;5622;50.840;4.948;2024-02-14T02:23:24;7.97;;;4.03;;
11135;SDS011;5622;50.840;4.948;2024-02-14T02:25:52;4.57;;;3.97;;
11135;SDS011;5622;50.840;4.948;2024-02-14T02:28:19;7.77;;;4.50;;
11135;SDS011;5622;50.840;4.948;2024-02-14T02:30:46;7.73;;;3.70;;
11135;SDS011;5622;50.840;4.948;2024-02-14T02:33:13;7.23;;;4.43;;
11135;SDS011;5622;50.840;4.948;2024-02-14T02:35:41;7.03;;;4.27;;
11135;SDS011;5622;50.840;4.948;2024-02-14T02:38:10;6.47;;;4.43;;
11135;SDS011;5622;50.840;4.948;2024-02-14T02:40:39;7.70;;;4.60;;
11135;SDS011;5622;50.840;4.948;2024-02-14T02:43:06;5.17;;;3.90;;
11135;SDS011;5622;50.840;4.948;2024-02-14T02:45:33;8.70;;;3.90;;
11135;SDS011;5622;50.840;4.948;2024-02-14T02:48:01;5.20;;;3.90;;
11135;SDS011;5622;50.840;4.948;2024-02-14T02:50:28;6.53;;;4.33;;
11135;SDS011;5622;50.840;4.948;2024-02-14T02:52:56;6.83;;;4.30;;
11135;SDS011;5622;50.840;4.948;2024-02-14T02:55:24;6.33;;;4.37;;
11135;SDS011;5622;50.840;4.948;2024-02-14T02:57:53;5.20;;;3.93;;
11135;SDS011;5622;50.840;4.948;2024-02-14T03:00:21;5.03;;;3.87;;
11135;SDS011;5622;50.840;4.948;2024-02-14T03:02:48;5.03;;;4.20;;
11135;SDS011;5622;50.840;4.948;2024-02-14T03:05:15;6.47;;;4.10;;
11135;SDS011;5622;50.840;4.948;2024-02-14T03:07:44;6.30;;;4.40;;
11135;SDS011;5622;50.840;4.948;2024-02-14T03:10:13;7.23;;;4.40;;
11135;SDS011;5622;50.840;4.948;2024-02-14T03:12:44;6.63;;;4.20;;
11135;SDS011;5622;50.840;4.948;2024-02-14T03:15:13;5.37;;;4.33;;
11135;SDS011;5622;50.840;4.948;2024-02-14T03:17:41;7.83;;;4.67;;
11135;SDS011;5622;50.840;4.948;2024-02-14T03:20:10;5.57;;;4.13;;
11135;SDS011;5622;50.840;4.948;2024-02-14T03:22:38;5.67;;;4.43;;
11135;SDS011;5622;50.840;4.948;2024-02-14T03:25:11;6.60;;;4.47;;
11135;SDS011;5622;50.840;4.948;2024-02-14T03:27:40;7.00;;;4.70;;
11135;SDS011;5622;50.840;4.948;2024-02-14T03:30:07;7.30;;;4.63;;
11135;SDS011;5622;50.840;4.948;2024-02-14T03:32:36;6.17;;;4.23;;
11135;SDS011;5622;50.840;4.948;2024-02-14T03:35:05;7.00;;;4.53;;
11135;SDS011;5622;50.840;4.948;2024-02-14T03:37:32;5.57;;;4.53;;
11135;SDS011;5622;50.840;4.948;2024-02-14T03:39:59;6.10;;;4.50;;
11135;SDS011;5622;50.840;4.948;2024-02-14T03:42:29;7.03;;;5.27;;
11135;SDS011;5622;50.840;4.948;2024-02-14T03:44:56;6.50;;;4.33;;
11135;SDS011;5622;50.840;4.948;2024-02-14T03:47:27;6.03;;;4.43;;
11135;SDS011;5622;50.840;4.948;2024-02-14T03:49:57;7.43;;;4.97;;
11135;SDS011;5622;50.840;4.948;2024-02-14T03:52:25;8.27;;;5.10;;
11135;SDS011;5622;50.840;4.948;2024-02-14T03:54:52;8.93;;;5.13;;
11135;SDS011;5622;50.840;4.948;2024-02-14T03:57:20;7.70;;;4.70;;
11135;SDS011;5622;50.840;4.948;2024-02-14T03:59:50;6.07;;;4.97;;
11135;SDS011;5622;50.840;4.948;2024-02-14T04:02:17;8.43;;;4.80;;
11135;SDS011;5622;50.840;4.948;2024-02-14T04:04:44;9.63;;;4.97;;
11135;SDS011;5622;50.840;4.948;2024-02-14T04:07:14;7.77;;;5.20;;
11135;SDS011;5622;50.840;4.948;2024-02-14T04:09:41;6.90;;;5.20;;
11135;SDS011;5622;50.840;4.948;2024-02-14T04:12:08;7.63;;;5.03;;
11135;SDS011;5622;50.840;4.948;2024-02-14T04:14:35;8.57;;;5.30;;
11135;SDS011;5622;50.840;4.948;2024-02-14T04:17:03;8.43;;;5.47;;
11135;SDS011;5622;50.840;4.948;2024-02-14T04:19:32;9.10;;;5.90;;
11135;SDS011;5622;50.840;4.948;2024-02-14T04:21:59;9.90;;;5.40;;
11135;SDS011;5622;50.840;4.948;2024-02-14T04:24:28;7.83;;;5.63;;
11135;SDS011;5622;50.840;4.948;2024-02-14T04:26:57;7.80;;;5.77;;
11135;SDS011;5622;50.840;4.948;2024-02-14T04:29:26;7.13;;;5.70;;
11135;SDS011;5622;50.840;4.948;2024-02-14T04:31:55;8.77;;;6.17;;
11135;SDS011;5622;50.840;4.948;2024-02-14T04:34:22;8.53;;;5.53;;
11135;SDS011;5622;50.840;4.948;2024-02-14T04:36:50;7.10;;;5.63;;
11135;SDS011;5622;50.840;4.948;2024-02-14T04:39:17;9.30;;;5.70;;
11135;SDS011;5622;50.840;4.948;2024-02-14T04:41:45;9.77;;;5.67;;
11135;SDS011;5622;50.840;4.948;2024-02-14T04:44:12;8.83;;;5.73;;
11135;SDS011;5622;50.840;4.948;2024-02-14T04:46:41;8.97;;;5.70;;
11135;SDS011;5622;50.840;4.948;2024-02-14T04:49:09;11.43;;;5.60;;
11135;SDS011;5622;50.840;4.948;2024-02-14T04:51:37;9.97;;;5.43;;
11135;SDS011;5622;50.840;4.948;2024-02-14T04:54:05;6.37;;;5.47;;
11135;SDS011;5622;50.840;4.948;2024-02-14T04:56:33;9.30;;;5.90;;
11135;SDS011;5622;50.840;4.948;2024-02-14T04:59:02;12.37;;;6.23;;
11135;SDS011;5622;50.840;4.948;2024-02-14T05:01:30;9.10;;;5.73;;
11135;SDS011;5622;50.840;4.948;2024-02-14T05:03:57;8.77;;;5.77;;
11135;SDS011;5622;50.840;4.948;2024-02-14T05:06:24;8.03;;;5.73;;
11135;SDS011;5622;50.840;4.948;2024-02-14T05:08:51;7.37;;;5.90;;
11135;SDS011;5622;50.840;4.948;2024-02-14T05:11:19;9.80;;;5.70;;
11135;SDS011;5622;50.840;4.948;2024-02-14T05:13:47;8.83;;;5.70;;
11135;SDS011;5622;50.840;4.948;2024-02-14T05:16:18;7.80;;;6.43;;
11135;SDS011;5622;50.840;4.948;2024-02-14T05:18:46;11.23;;;6.67;;
11135;SDS011;5622;50.840;4.948;2024-02-14T05:21:13;8.57;;;6.50;;
11135;SDS011;5622;50.840;4.948;2024-02-14T05:23:40;8.57;;;7.13;;
11135;SDS011;5622;50.840;4.948;2024-02-14T05:26:08;7.67;;;6.57;;
11135;SDS011;5622;50.840;4.948;2024-02-14T05:28:35;13.93;;;7.27;;
11135;SDS011;5622;50.840;4.948;2024-02-14T05:31:04;10.33;;;7.10;;
11135;SDS011;5622;50.840;4.948;2024-02-14T05:33:34;9.77;;;6.63;;
11135;SDS011;5622;50.840;4.948;2024-02-14T05:36:01;9.87;;;6.70;;
11135;SDS011;5622;50.840;4.948;2024-02-14T05:38:28;7.87;;;6.93;;
11135;SDS011;5622;50.840;4.948;2024-02-14T05:40:58;9.07;;;7.33;;
11135;SDS011;5622;50.840;4.948;2024-02-14T05:43:26;10.50;;;6.60;;
11135;SDS011;5622;50.840;4.948;2024-02-14T05:45:53;12.03;;;7.33;;
11135;SDS011;5622;50.840;4.948;2024-02-14T05:48:20;12.30;;;6.97;;
11135;SDS011;5622;50.840;4.948;2024-02-14T05:50:50;13.10;;;7.47;;
11135;SDS011;5622;50.840;4.948;2024-02-14T05:53:17;8.87;;;6.33;;
11135;SDS011;5622;50.840;4.948;2024-02-14T05:55:45;7.77;;;6.60;;
11135;SDS011;5622;50.840;4.948;2024-02-14T05:58:12;9.93;;;6.80;;
11135;SDS011;5622;50.840;4.948;2024-02-14T06:00:40;12.47;;;7.53;;
11135;SDS011;5622;50.840;4.948;2024-02-14T06:03:07;10.37;;;6.37;;
11135;SDS011;5622;50.840;4.948;2024-02-14T06:05:34;10.20;;;6.80;;
11135;SDS011;5622;50.840;4.948;2024-02-14T06:08:03;10.67;;;7.27;;
11135;SDS011;5622;50.840;4.948;2024-02-14T06:10:30;9.73;;;7.03;;
11135;SDS011;5622;50.840;4.948;2024-02-14T06:12:59;10.13;;;6.70;;
11135;SDS011;5622;50.840;4.948;2024-02-14T06:15:26;8.67;;;6.53;;
11135;SDS011;5622;50.840;4.948;2024-02-14T06:17:53;10.17;;;7.00;;
11135;SDS011;5622;50.840;4.948;2024-02-14T06:20:20;10.77;;;7.10;;
11135;SDS011;5622;50.840;4.948;2024-02-14T06:22:48;13.07;;;6.90;;
11135;SDS011;5622;50.840;4.948;2024-02-14T06:25:17;12.63;;;7.97;;
11135;SDS011;5622;50.840;4.948;2024-02-14T06:27:47;13.87;;;7.03;;
11135;SDS011;5622;50.840;4.948;2024-02-14T06:30:14;10.23;;;6.80;;
11135;SDS011;5622;50.840;4.948;2024-02-14T06:32:43;8.73;;;6.20;;
11135;SDS011;5622;50.840;4.948;2024-02-14T06:35:11;10.13;;;6.53;;
11135;SDS011;5622;50.840;4.948;2024-02-14T06:37:40;8.87;;;6.17;;
11135;SDS011;5622;50.840;4.948;2024-02-14T06:40:07;11.03;;;7.47;;
11135;SDS011;5622;50.840;4.948;2024-02-14T06:42:37;10.63;;;6.57;;
11135;SDS011;5622;50.840;4.948;2024-02-14T06:45:05;7.60;;;6.10;;
11135;SDS011;5622;50.840;4.948;2024-02-14T06:47:33;9.03;;;6.83;;
11135;SDS011;5622;50.840;4.948;2024-02-14T06:50:00;9.03;;;6.50;;
11135;SDS011;5622;50.840;4.948;2024-02-14T06:52:27;8.37;;;6.00;;
11135;SDS011;5622;50.840;4.948;2024-02-14T06:54:54;11.00;;;5.87;;
11135;SDS011;5622;50.840;4.948;2024-02-14T06:57:22;9.03;;;6.23;;
11135;SDS011;5622;50.840;4.948;2024-02-14T06:59:51;10.67;;;6.37;;
11135;SDS011;5622;50.840;4.948;2024-02-14T07:02:18;9.53;;;6.53;;
11135;SDS011;5622;50.840;4.948;2024-02-14T07:04:46;11.20;;;6.43;;
11135;SDS011;5622;50.840;4.948;2024-02-14T07:07:13;13.47;;;7.50;;
11135;SDS011;5622;50.840;4.948;2024-02-14T07:09:41;9.30;;;6.73;;
11135;SDS011;5622;50.840;4.948;2024-02-14T07:12:10;10.53;;;6.77;;
11135;SDS011;5622;50.840;4.948;2024-02-14T07:14:37;8.93;;;6.37;;
11135;SDS011;5622;50.840;4.948;2024-02-14T07:17:06;7.70;;;5.67;;
11135;SDS011;5622;50.840;4.948;2024-02-14T07:19:33;10.00;;;6.07;;
11135;SDS011;5622;50.840;4.948;2024-02-14T07:22:00;9.00;;;6.37;;
11135;SDS011;5622;50.840;4.948;2024-02-14T07:24:27;11.00;;;6.60;;
11135;SDS011;5622;50.840;4.948;2024-02-14T07:26:54;13.63;;;7.20;;
11135;SDS011;5622;50.840;4.948;2024-02-14T07:29:22;13.27;;;6.60;;
11135;SDS011;5622;50.840;4.948;2024-02-14T07:31:50;9.23;;;6.03;;
11135;SDS011;5622;50.840;4.948;2024-02-14T07:34:19;8.83;;;6.07;;
11135;SDS011;5622;50.840;4.948;2024-02-14T07:36:46;9.47;;;6.57;;
11135;SDS011;5622;50.840;4.948;2024-02-14T07:39:13;9.23;;;5.90;;
11135;SDS011;5622;50.840;4.948;2024-02-14T07:41:40;8.37;;;6.23;;
11135;SDS011;5622;50.840;4.948;2024-02-14T07:44:07;9.17;;;6.40;;
11135;SDS011;5622;50.840;4.948;2024-02-14T07:46:35;10.33;;;6.03;;
11135;SDS011;5622;50.840;4.948;2024-02-14T07:49:02;9.40;;;5.90;;
11135;SDS011;5622;50.840;4.948;2024-02-14T07:51:31;11.83;;;6.00;;
11135;SDS011;5622;50.840;4.948;2024-02-14T07:54:01;10.67;;;6.20;;
11135;SDS011;5622;50.840;4.948;2024-02-14T07:56:29;10.57;;;6.20;;
11135;SDS011;5622;50.840;4.948;2024-02-14T07:58:57;9.87;;;6.23;;
11135;SDS011;5622;50.840;4.948;2024-02-14T08:01:25;7.53;;;6.07;;
11135;SDS011;5622;50.840;4.948;2024-02-14T08:03:53;6.80;;;5.27;;
11135;SDS011;5622;50.840;4.948;2024-02-14T08:06:20;12.40;;;6.80;;
11135;SDS011;5622;50.840;4.948;2024-02-14T08:08:49;8.77;;;6.93;;
11135;SDS011;5622;50.840;4.948;2024-02-14T08:11:22;13.07;;;7.60;;
11135;SDS011;5622;50.840;4.948;2024-02-14T08:13:49;13.07;;;7.87;;
11135;SDS011;5622;50.840;4.948;2024-02-14T08:16:16;9.60;;;6.10;;
11135;SDS011;5622;50.840;4.948;2024-02-14T08:18:44;8.47;;;6.60;;
11135;SDS011;5622;50.840;4.948;2024-02-14T08:21:11;11.67;;;6.63;;
11135;SDS011;5622;50.840;4.948;2024-02-14T08:23:38;13.43;;;6.77;;
11135;SDS011;5622;50.840;4.948;2024-02-14T08:26:09;15.00;;;7.40;;
11135;SDS011;5622;50.840;4.948;2024-02-14T08:28:36;10.33;;;6.40;;
11135;SDS011;5622;50.840;4.948;2024-02-14T08:31:09;10.97;;;6.50;;
11135;SDS011;5622;50.840;4.948;2024-02-14T08:33:37;8.67;;;6.03;;
11135;SDS011;5622;50.840;4.948;2024-02-14T08:36:04;10.53;;;6.87;;
11135;SDS011;5622;50.840;4.948;2024-02-14T08:38:32;9.67;;;6.80;;
11135;SDS011;5622;50.840;4.948;2024-02-14T08:41:01;9.10;;;6.13;;
11135;SDS011;5622;50.840;4.948;2024-02-14T08:43:31;10.13;;;6.93;;
11135;SDS011;5622;50.840;4.948;2024-02-14T08:45:58;9.00;;;6.67;;
11135;SDS011;5622;50.840;4.948;2024-02-14T08:48:26;10.50;;;7.17;;
11135;SDS011;5622;50.840;4.948;2024-02-14T08:50:55;9.77;;;6.60;;
11135;SDS011;5622;50.840;4.948;2024-02-14T08:53:22;10.47;;;6.57;;
11135;SDS011;5622;50.840;4.948;2024-02-14T08:55:49;8.87;;;6.60;;
11135;SDS011;5622;50.840;4.948;2024-02-14T08:58:16;11.63;;;6.30;;
11135;SDS011;5622;50.840;4.948;2024-02-14T09:00:45;12.57;;;7.00;;
11135;SDS011;5622;50.840;4.948;2024-02-14T09:03:12;11.90;;;6.70;;
11135;SDS011;5622;50.840;4.948;2024-02-14T09:05:39;10.27;;;7.27;;
11135;SDS011;5622;50.840;4.948;2024-02-14T09:08:06;11.90;;;6.70;;
11135;SDS011;5622;50.840;4.948;2024-02-14T09:10:33;13.10;;;7.07;;
11135;SDS011;5622;50.840;4.948;2024-02-14T09:13:00;7.20;;;6.10;;
11135;SDS011;5622;50.840;4.948;2024-02-14T09:15:29;10.40;;;7.17;;
11135;SDS011;5622;50.840;4.948;2024-02-14T09:17:59;9.97;;;7.27;;
11135;SDS011;5622;50.840;4.948;2024-02-14T09:20:28;9.87;;;6.27;;
11135;SDS011;5622;50.840;4.948;2024-02-14T09:22:56;9.07;;;6.80;;
11135;SDS011;5622;50.840;4.948;2024-02-14T09:25:24;8.27;;;6.83;;
11135;SDS011;5622;50.840;4.948;2024-02-14T09:27:51;9.30;;;6.40;;
11135;SDS011;5622;50.840;4.948;2024-02-14T09:30:18;9.40;;;6.43;;
11135;SDS011;5622;50.840;4.948;2024-02-14T09:32:45;8.00;;;6.33;;
11135;SDS011;5622;50.840;4.948;2024-02-14T09:35:14;10.80;;;6.17;;
11135;SDS011;5622;50.840;4.948;2024-02-14T09:37:41;9.33;;;6.30;;
11135;SDS011;5622;50.840;4.948;2024-02-14T09:40:08;7.17;;;5.93;;
11135;SDS011;5622;50.840;4.948;2024-02-14T09:42:38;8.93;;;6.00;;
11135;SDS011;5622;50.840;4.948;2024-02-14T09:45:09;8.90;;;6.30;;
11135;SDS011;5622;50.840;4.948;2024-02-14T09:47:37;7.33;;;5.33;;
11135;SDS011;5622;50.840;4.948;2024-02-14T09:50:07;7.50;;;5.73;;
11135;SDS011;5622;50.840;4.948;2024-02-14T09:52:37;6.47;;;5.67;;
11135;SDS011;5622;50.840;4.948;2024-02-14T09:55:05;10.60;;;4.93;;
11135;SDS011;5622;50.840;4.948;2024-02-14T09:57:33;7.40;;;5.60;;
11135;SDS011;5622;50.840;4.948;2024-02-14T10:00:00;8.27;;;5.53;;
11135;SDS011;5622;50.840;4.948;2024-02-14T10:02:31;9.37;;;5.50;;
11135;SDS011;5622;50.840;4.948;2024-02-14T10:04:59;7.53;;;5.30;;
11135;SDS011;5622;50.840;4.948;2024-02-14T10:07:29;8.83;;;5.23;;
11135;SDS011;5622;50.840;4.948;2024-02-14T10:10:05;6.63;;;4.67;;
11135;SDS011;5622;50.840;4.948;2024-02-14T10:12:32;5.23;;;4.50;;
11135;SDS011;5622;50.840;4.948;2024-02-14T10:15:00;7.17;;;4.63;;
11135;SDS011;5622;50.840;4.948;2024-02-14T10:17:27;7.67;;;4.77;;
11135;SDS011;5622;50.840;4.948;2024-02-14T10:19:55;6.40;;;4.30;;
11135;SDS011;5622;50.840;4.948;2024-02-14T10:22:23;5.20;;;4.07;;
11135;SDS011;5622;50.840;4.948;2024-02-14T10:24:50;5.93;;;4.30;;
11135;SDS011;5622;50.840;4.948;2024-02-14T10:27:20;4.30;;;3.90;;
11135;SDS011;5622;50.840;4.948;2024-02-14T10:29:47;4.50;;;4.10;;
11135;SDS011;5622;50.840;4.948;2024-02-14T10:32:15;4.50;;;4.10;;
11135;SDS011;5622;50.840;4.948;2024-02-14T10:34:43;4.00;;;3.50;;
11135;SDS011;5622;50.840;4.948;2024-02-14T10:37:13;3.63;;;3.30;;
11135;SDS011;5622;50.840;4.948;2024-02-14T10:39:42;4.47;;;3.63;;
11135;SDS011;5622;50.840;4.948;2024-02-14T10:42:12;9.13;;;6.47;;
11135;SDS011;5622;50.840;4.948;2024-02-14T10:44:42;5.97;;;4.07;;
11135;SDS011;5622;50.840;4.948;2024-02-14T10:47:10;7.33;;;4.13;;
11135;SDS011;5622;50.840;4.948;2024-02-14T10:49:40;6.90;;;4.07;;
11135;SDS011;5622;50.840;4.948;2024-02-14T10:52:09;6.37;;;3.87;;
11135;SDS011;5622;50.840;4.948;2024-02-14T10:54:37;8.77;;;4.23;;
11135;SDS011;5622;50.840;4.948;2024-02-14T10:57:04;5.80;;;4.30;;
11135;SDS011;5622;50.840;4.948;2024-02-14T10:59:37;4.77;;;4.27;;
11135;SDS011;5622;50.840;4.948;2024-02-14T11:02:09;5.80;;;4.70;;
11135;SDS011;5622;50.840;4.948;2024-02-14T11:04:37;8.53;;;4.40;;
11135;SDS011;5622;50.840;4.948;2024-02-14T11:07:08;7.37;;;5.00;;
11135;SDS011;5622;50.840;4.948;2024-02-14T11:09:38;5.23;;;4.57;;
11135;SDS011;5622;50.840;4.948;2024-02-14T11:12:06;6.37;;;4.73;;
11135;SDS011;5622;50.840;4.948;2024-02-14T11:14:35;4.53;;;4.13;;
11135;SDS011;5622;50.840;4.948;2024-02-14T11:17:08;6.37;;;3.80;;
11135;SDS011;5622;50.840;4.948;2024-02-14T11:19:36;5.13;;;3.70;;
11135;SDS011;5622;50.840;4.948;2024-02-14T11:22:13;6.23;;;3.50;;
11135;SDS011;5622;50.840;4.948;2024-02-14T11:24:45;7.13;;;4.40;;
11135;SDS011;5622;50.840;4.948;2024-02-14T11:27:12;6.10;;;4.33;;
11135;SDS011;5622;50.840;4.948;2024-02-14T11:29:40;12.77;;;7.13;;
11135;SDS011;5622;50.840;4.948;2024-02-14T11:32:21;4.13;;;3.20;;
11135;SDS011;5622;50.840;4.948;2024-02-14T11:34:55;5.33;;;3.80;;
11135;SDS011;5622;50.840;4.948;2024-02-14T11:37:27;5.17;;;3.60;;
11135;SDS011;5622;50.840;4.948;2024-02-14T11:39:54;5.50;;;3.60;;
11135;SDS011;5622;50.840;4.948;2024-02-14T11:42:23;3.73;;;3.03;;
11135;SDS011;5622;50.840;4.948;2024-02-14T11:44:50;3.37;;;2.90;;
11135;SDS011;5622;50.840;4.948;2024-02-14T11:47:17;4.10;;;3.13;;
11135;SDS011;5622;50.840;4.948;2024-02-14T11:49:46;3.30;;;2.90;;
11135;SDS011;5622;50.840;4.948;2024-02-14T11:52:13;3.70;;;2.80;;
11135;SDS011;5622;50.840;4.948;2024-02-14T11:54:45;6.80;;;4.77;;
11135;SDS011;5622;50.840;4.948;2024-02-14T11:57:16;4.20;;;3.63;;
11135;SDS011;5622;50.840;4.948;2024-02-14T11:59:44;3.33;;;2.77;;
11135;SDS011;5622;50.840;4.948;2024-02-14T12:02:18;2.73;;;2.50;;
11135;SDS011;5622;50.840;4.948;2024-02-14T12:04:46;3.17;;;2.60;;
11135;SDS011;5622;50.840;4.948;2024-02-14T12:07:15;3.87;;;3.20;;
11135;SDS011;5622;50.840;4.948;2024-02-14T12:09:43;3.13;;;2.70;;
11135;SDS011;5622;50.840;4.948;2024-02-14T12:12:11;2.70;;;2.20;;
11135;SDS011;5622;50.840;4.948;2024-02-14T12:14:38;3.60;;;3.03;;
11135;SDS011;5622;50.840;4.948;2024-02-14T12:17:05;2.83;;;2.40;;
11135;SDS011;5622;50.840;4.948;2024-02-14T12:19:34;4.10;;;3.20;;
11135;SDS011;5622;50.840;4.948;2024-02-14T12:22:08;4.67;;;2.70;;
11135;SDS011;5622;50.840;4.948;2024-02-14T12:24:37;4.10;;;2.70;;
11135;SDS011;5622;50.840;4.948;2024-02-14T12:27:04;3.27;;;2.80;;
11135;SDS011;5622;50.840;4.948;2024-02-14T12:29:31;3.97;;;2.90;;
11135;SDS011;5622;50.840;4.948;2024-02-14T12:32:05;4.50;;;3.13;;
11135;SDS011;5622;50.840;4.948;2024-02-14T12:34:32;3.10;;;2.53;;
11135;SDS011;5622;50.840;4.948;2024-02-14T12:37:01;3.43;;;2.50;;
11135;SDS011;5622;50.840;4.948;2024-02-14T12:39:30;3.67;;;3.27;;
11135;SDS011;5622;50.840;4.948;2024-02-14T12:41:57;4.93;;;3.00;;
11135;SDS011;5622;50.840;4.948;2024-02-14T12:44:27;3.40;;;3.10;;
11135;SDS011;5622;50.840;4.948;2024-02-14T12:46:54;4.03;;;3.53;;
11135;SDS011;5622;50.840;4.948;2024-02-14T12:49:21;5.67;;;3.97;;
11135;SDS011;5622;50.840;4.948;2024-02-14T12:51:52;4.97;;;3.50;;
11135;SDS011;5622;50.840;4.948;2024-02-14T12:54:22;4.37;;;3.73;;
11135;SDS011;5622;50.840;4.948;2024-02-14T12:56:49;7.50;;;4.17;;
11135;SDS011;5622;50.840;4.948;2024-02-14T12:59:17;4.87;;;4.20;;
11135;SDS011;5622;50.840;4.948;2024-02-14T13:01:44;5.77;;;4.00;;
11135;SDS011;5622;50.840;4.948;2024-02-14T13:04:12;6.87;;;4.40;;
11135;SDS011;5622;50.840;4.948;2024-02-14T13:06:41;6.03;;;4.30;;
11135;SDS011;5622;50.840;4.948;2024-02-14T13:09:10;5.03;;;4.03;;
11135;SDS011;5622;50.840;4.948;2024-02-14T13:11:39;8.63;;;4.63;;
11135;SDS011;5622;50.840;4.948;2024-02-14T13:14:07;5.47;;;4.43;;
11135;SDS011;5622;50.840;4.948;2024-02-14T13:16:35;8.63;;;4.97;;
11135;SDS011;5622;50.840;4.948;2024-02-14T13:19:02;8.03;;;5.37;;
11135;SDS011;5622;50.840;4.948;2024-02-14T13:21:30;6.80;;;4.70;;
11135;SDS011;5622;50.840;4.948;2024-02-14T13:23:58;5.90;;;4.80;;
11135;SDS011;5622;50.840;4.948;2024-02-14T13:26:27;7.37;;;5.13;;
11135;SDS011;5622;50.840;4.948;2024-02-14T13:28:54;7.27;;;4.70;;
11135;SDS011;5622;50.840;4.948;2024-02-14T13:31:21;8.93;;;4.80;;
11135;SDS011;5622;50.840;4.948;2024-02-14T13:33:48;4.97;;;4.33;;
11135;SDS011;5622;50.840;4.948;2024-02-14T13:36:15;6.20;;;4.97;;
11135;SDS011;5622;50.840;4.948;2024-02-14T13:38:43;10.27;;;4.97;;
11135;SDS011;5622;50.840;4.948;2024-02-14T13:41:11;7.47;;;5.13;;
11135;SDS011;5622;50.840;4.948;2024-02-14T13:43:40;7.73;;;4.73;;
11135;SDS011;5622;50.840;4.948;2024-02-14T13:46:07;5.57;;;4.67;;
11135;SDS011;5622;50.840;4.948;2024-02-14T13:48:34;6.70;;;4.60;;
11135;SDS011;5622;50.840;4.948;2024-02-14T13:51:01;7.50;;;4.47;;
11135;SDS011;5622;50.840;4.948;2024-02-14T13:53:29;6.40;;;4.40;;
11135;SDS011;5622;50.840;4.948;2024-02-14T13:55:58;6.30;;;4.37;;
11135;SDS011;5622;50.840;4.948;2024-02-14T13:58:25;7.13;;;4.63;;
11135;SDS011;5622;50.840;4.948;2024-02-14T14:00:54;7.43;;;4.70;;
11135;SDS011;5622;50.840;4.948;2024-02-14T14:03:21;6.43;;;5.00;;
11135;SDS011;5622;50.840;4.948;2024-02-14T14:05:48;6.20;;;4.60;;
11135;SDS011;5622;50.840;4.948;2024-02-14T14:08:16;9.13;;;4.33;;
11135;SDS011;5622;50.840;4.948;2024-02-14T14:10:43;6.40;;;4.50;;
11135;SDS011;5622;50.840;4.948;2024-02-14T14:13:10;5.60;;;4.23;;
11135;SDS011;5622;50.840;4.948;2024-02-14T14:15:39;6.70;;;4.90;;
11135;SDS011;5622;50.840;4.948;2024-02-14T14:18:07;5.03;;;4.03;;
11135;SDS011;5622;50.840;4.948;2024-02-14T14:20:35;6.37;;;4.20;;
11135;SDS011;5622;50.840;4.948;2024-02-14T14:23:03;7.57;;;4.77;;
11135;SDS011;5622;50.840;4.948;2024-02-14T14:25:31;6.70;;;4.80;;
11135;SDS011;5622;50.840;4.948;2024-02-14T14:27:58;5.37;;;4.20;;
11135;SDS011;5622;50.840;4.948;2024-02-14T14:30:25;7.20;;;4.57;;
11135;SDS011;5622;50.840;4.948;2024-02-14T14:32:53;8.37;;;4.67;;
11135;SDS011;5622;50.840;4.948;2024-02-14T14:35:22;7.00;;;4.53;;
11135;SDS011;5622;50.840;4.948;2024-02-14T14:37:49;7.50;;;4.67;;
11135;SDS011;5622;50.840;4.948;2024-02-14T14:40:17;7.03;;;4.97;;
11135;SDS011;5622;50.840;4.948;2024-02-14T14:42:44;7.17;;;5.47;;
11135;SDS011;5622;50.840;4.948;2024-02-14T14:45:11;7.10;;;4.67;;
11135;SDS011;5622;50.840;4.948;2024-02-14T14:47:38;7.10;;;5.00;;
11135;SDS011;5622;50.840;4.948;2024-02-14T14:50:06;7.23;;;5.63;;
11135;SDS011;5622;50.840;4.948;2024-02-14T14:52:35;5.97;;;4.30;;
11135;SDS011;5622;50.840;4.948;2024-02-14T14:55:03;8.53;;;5.13;;
11135;SDS011;5622;50.840;4.948;2024-02-14T14:57:31;6.40;;;5.23;;
11135;SDS011;5622;50.840;4.948;2024-02-14T15:00:00;9.67;;;5.23;;
11135;SDS011;5622;50.840;4.948;2024-02-14T15:02:28;8.87;;;4.80;;
11135;SDS011;5622;50.840;4.948;2024-02-14T15:04:55;8.90;;;5.67;;